sensor_id;sensor_type;location;lat;lon;timestamp;P1;durP1;ratioP1;P2;durP2;ratioP2
7045;SDS011;3564;53.326;10.356;2024-03-02T00:00:03;28.13;;;17.60;;
7045;SDS011;3564;53.326;10.356;2024-03-02T00:02:45;29.70;;;17.80;;
7045;SDS011;3564;53.326;10.356;2024-03-02T00:05:12;26.67;;;16.30;;
7045;SDS011;3564;53.326;10.356;2024-03-02T00:07:41;26.17;;;16.40;;
7045;SDS011;3564;53.326;10.356;2024-03-02T00:10:08;26.53;;;16.17;;
7045;SDS011;3564;53.326;10.356;2024-03-02T00:12:38;25.93;;;16.63;;
7045;SDS011;3564;53.326;10.356;2024-03-02T00:15:05;28.63;;;17.60;;
7045;SDS011;3564;53.326;10.356;2024-03-02T00:17:53;27.17;;;17.17;;
7045;SDS011;3564;53.326;10.356;2024-03-02T00:20:21;26.57;;;17.20;;
7045;SDS011;3564;53.326;10.356;2024-03-02T00:22:52;30.93;;;17.67;;
7045;SDS011;3564;53.326;10.356;2024-03-02T00:25:21;28.43;;;17.70;;
7045;SDS011;3564;53.326;10.356;2024-03-02T00:27:47;27.20;;;17.57;;
7045;SDS011;3564;53.326;10.356;2024-03-02T00:33:20;27.87;;;17.37;;
7045;SDS011;3564;53.326;10.356;2024-03-02T00:35:47;27.77;;;17.73;;
7045;SDS011;3564;53.326;10.356;2024-03-02T00:38:14;30.67;;;18.23;;
7045;SDS011;3564;53.326;10.356;2024-03-02T00:40:43;27.07;;;17.37;;
7045;SDS011;3564;53.326;10.356;2024-03-02T00:43:19;26.43;;;17.77;;
7045;SDS011;3564;53.326;10.356;2024-03-02T00:45:56;27.03;;;18.63;;
7045;SDS011;3564;53.326;10.356;2024-03-02T00:48:22;30.43;;;17.73;;
7045;SDS011;3564;53.326;10.356;2024-03-02T00:50:50;26.70;;;18.37;;
7045;SDS011;3564;53.326;10.356;2024-03-02T00:53:17;27.33;;;17.97;;
7045;SDS011;3564;53.326;10.356;2024-03-02T00:55:49;29.90;;;19.53;;
7045;SDS011;3564;53.326;10.356;2024-03-02T00:58:15;28.53;;;18.63;;
7045;SDS011;3564;53.326;10.356;2024-03-02T01:00:40;32.50;;;19.00;;
7045;SDS011;3564;53.326;10.356;2024-03-02T01:03:06;29.27;;;18.20;;
7045;SDS011;3564;53.326;10.356;2024-03-02T01:05:32;28.43;;;18.30;;
7045;SDS011;3564;53.326;10.356;2024-03-02T01:07:59;32.90;;;18.37;;
7045;SDS011;3564;53.326;10.356;2024-03-02T01:10:24;27.83;;;17.93;;
7045;SDS011;3564;53.326;10.356;2024-03-02T01:12:51;26.93;;;18.30;;
7045;SDS011;3564;53.326;10.356;2024-03-02T01:15:16;30.20;;;19.43;;
7045;SDS011;3564;53.326;10.356;2024-03-02T01:17:42;27.50;;;18.13;;
7045;SDS011;3564;53.326;10.356;2024-03-02T01:20:08;29.70;;;18.07;;
7045;SDS011;3564;53.326;10.356;2024-03-02T01:22:35;28.17;;;19.33;;
7045;SDS011;3564;53.326;10.356;2024-03-02T01:25:01;29.93;;;19.87;;
7045;SDS011;3564;53.326;10.356;2024-03-02T01:27:27;28.10;;;17.60;;
7045;SDS011;3564;53.326;10.356;2024-03-02T01:29:53;31.53;;;19.13;;
7045;SDS011;3564;53.326;10.356;2024-03-02T01:32:20;30.37;;;18.63;;
7045;SDS011;3564;53.326;10.356;2024-03-02T01:34:45;26.93;;;18.10;;
7045;SDS011;3564;53.326;10.356;2024-03-02T01:37:11;30.60;;;18.67;;
7045;SDS011;3564;53.326;10.356;2024-03-02T01:39:37;30.27;;;18.60;;
7045;SDS011;3564;53.326;10.356;2024-03-02T01:42:02;27.87;;;18.70;;
7045;SDS011;3564;53.326;10.356;2024-03-02T01:44:28;30.13;;;18.87;;
7045;SDS011;3564;53.326;10.356;2024-03-02T01:46:54;28.80;;;18.23;;
7045;SDS011;3564;53.326;10.356;2024-03-02T01:49:19;29.30;;;19.13;;
7045;SDS011;3564;53.326;10.356;2024-03-02T01:51:45;27.90;;;18.93;;
7045;SDS011;3564;53.326;10.356;2024-03-02T01:54:11;26.40;;;17.87;;
7045;SDS011;3564;53.326;10.356;2024-03-02T01:56:37;32.47;;;19.50;;
7045;SDS011;3564;53.326;10.356;2024-03-02T01:59:02;30.07;;;18.23;;
7045;SDS011;3564;53.326;10.356;2024-03-02T02:01:28;31.33;;;17.83;;
7045;SDS011;3564;53.326;10.356;2024-03-02T02:03:54;29.47;;;18.67;;
7045;SDS011;3564;53.326;10.356;2024-03-02T02:06:20;28.67;;;18.47;;
7045;SDS011;3564;53.326;10.356;2024-03-02T02:08:46;27.03;;;18.30;;
7045;SDS011;3564;53.326;10.356;2024-03-02T02:11:14;26.77;;;17.87;;
7045;SDS011;3564;53.326;10.356;2024-03-02T02:13:40;29.10;;;18.93;;
7045;SDS011;3564;53.326;10.356;2024-03-02T02:16:06;30.83;;;17.80;;
7045;SDS011;3564;53.326;10.356;2024-03-02T02:18:33;26.33;;;18.77;;
7045;SDS011;3564;53.326;10.356;2024-03-02T02:20:58;30.70;;;18.97;;
7045;SDS011;3564;53.326;10.356;2024-03-02T02:23:24;30.40;;;18.60;;
7045;SDS011;3564;53.326;10.356;2024-03-02T02:25:50;29.83;;;18.73;;
7045;SDS011;3564;53.326;10.356;2024-03-02T02:28:15;30.07;;;18.03;;
7045;SDS011;3564;53.326;10.356;2024-03-02T02:30:41;31.80;;;19.97;;
7045;SDS011;3564;53.326;10.356;2024-03-02T02:33:08;28.87;;;18.47;;
7045;SDS011;3564;53.326;10.356;2024-03-02T02:35:34;32.47;;;19.37;;
7045;SDS011;3564;53.326;10.356;2024-03-02T02:38:00;25.37;;;17.57;;
7045;SDS011;3564;53.326;10.356;2024-03-02T02:40:27;28.03;;;17.20;;
7045;SDS011;3564;53.326;10.356;2024-03-02T02:42:55;29.17;;;18.87;;
7045;SDS011;3564;53.326;10.356;2024-03-02T02:45:21;28.63;;;18.33;;
7045;SDS011;3564;53.326;10.356;2024-03-02T02:47:47;27.23;;;17.03;;
7045;SDS011;3564;53.326;10.356;2024-03-02T02:50:12;28.70;;;18.13;;
7045;SDS011;3564;53.326;10.356;2024-03-02T02:52:39;29.80;;;18.47;;
7045;SDS011;3564;53.326;10.356;2024-03-02T02:55:07;28.93;;;19.27;;
7045;SDS011;3564;53.326;10.356;2024-03-02T02:57:34;27.13;;;18.00;;
7045;SDS011;3564;53.326;10.356;2024-03-02T03:00:02;26.93;;;17.67;;
7045;SDS011;3564;53.326;10.356;2024-03-02T03:02:36;32.43;;;18.40;;
7045;SDS011;3564;53.326;10.356;2024-03-02T03:05:03;27.97;;;17.47;;
7045;SDS011;3564;53.326;10.356;2024-03-02T03:07:31;26.90;;;18.10;;
7045;SDS011;3564;53.326;10.356;2024-03-02T03:09:56;27.63;;;18.37;;
7045;SDS011;3564;53.326;10.356;2024-03-02T03:12:22;30.60;;;18.57;;
7045;SDS011;3564;53.326;10.356;2024-03-02T03:14:47;26.07;;;18.07;;
7045;SDS011;3564;53.326;10.356;2024-03-02T03:17:13;29.60;;;18.37;;
7045;SDS011;3564;53.326;10.356;2024-03-02T03:19:39;26.20;;;18.27;;
7045;SDS011;3564;53.326;10.356;2024-03-02T03:22:04;28.93;;;17.33;;
7045;SDS011;3564;53.326;10.356;2024-03-02T03:24:30;29.87;;;18.20;;
7045;SDS011;3564;53.326;10.356;2024-03-02T03:26:55;26.00;;;16.87;;
7045;SDS011;3564;53.326;10.356;2024-03-02T03:29:21;28.70;;;18.63;;
7045;SDS011;3564;53.326;10.356;2024-03-02T03:31:46;25.80;;;17.37;;
7045;SDS011;3564;53.326;10.356;2024-03-02T03:34:12;28.20;;;17.60;;
7045;SDS011;3564;53.326;10.356;2024-03-02T03:36:40;28.70;;;17.93;;
7045;SDS011;3564;53.326;10.356;2024-03-02T03:39:07;27.57;;;17.47;;
7045;SDS011;3564;53.326;10.356;2024-03-02T03:41:32;26.70;;;17.67;;
7045;SDS011;3564;53.326;10.356;2024-03-02T03:43:58;31.80;;;17.37;;
7045;SDS011;3564;53.326;10.356;2024-03-02T03:46:24;25.50;;;17.37;;
7045;SDS011;3564;53.326;10.356;2024-03-02T03:48:49;26.00;;;17.50;;
7045;SDS011;3564;53.326;10.356;2024-03-02T03:51:15;26.80;;;17.57;;
7045;SDS011;3564;53.326;10.356;2024-03-02T03:53:40;28.93;;;16.93;;
7045;SDS011;3564;53.326;10.356;2024-03-02T03:56:06;27.37;;;17.37;;
7045;SDS011;3564;53.326;10.356;2024-03-02T03:58:31;24.07;;;17.10;;
7045;SDS011;3564;53.326;10.356;2024-03-02T04:00:57;27.93;;;16.80;;
7045;SDS011;3564;53.326;10.356;2024-03-02T04:03:22;24.07;;;16.27;;
7045;SDS011;3564;53.326;10.356;2024-03-02T04:05:48;26.57;;;16.47;;
7045;SDS011;3564;53.326;10.356;2024-03-02T04:08:13;25.20;;;16.70;;
7045;SDS011;3564;53.326;10.356;2024-03-02T04:10:39;24.37;;;16.00;;
7045;SDS011;3564;53.326;10.356;2024-03-02T04:13:07;25.57;;;17.00;;
7045;SDS011;3564;53.326;10.356;2024-03-02T04:15:33;25.80;;;16.80;;
7045;SDS011;3564;53.326;10.356;2024-03-02T04:17:58;26.70;;;17.37;;
7045;SDS011;3564;53.326;10.356;2024-03-02T04:20:24;27.67;;;16.57;;
7045;SDS011;3564;53.326;10.356;2024-03-02T04:22:50;24.43;;;16.20;;
7045;SDS011;3564;53.326;10.356;2024-03-02T04:25:16;21.67;;;16.20;;
7045;SDS011;3564;53.326;10.356;2024-03-02T04:27:41;25.87;;;17.30;;
7045;SDS011;3564;53.326;10.356;2024-03-02T04:30:07;26.07;;;16.87;;
7045;SDS011;3564;53.326;10.356;2024-03-02T04:32:33;22.97;;;16.13;;
7045;SDS011;3564;53.326;10.356;2024-03-02T04:34:58;27.37;;;17.27;;
7045;SDS011;3564;53.326;10.356;2024-03-02T04:37:24;26.77;;;17.97;;
7045;SDS011;3564;53.326;10.356;2024-03-02T04:39:50;25.87;;;17.10;;
7045;SDS011;3564;53.326;10.356;2024-03-02T04:42:15;22.73;;;15.73;;
7045;SDS011;3564;53.326;10.356;2024-03-02T04:44:41;26.47;;;16.30;;
7045;SDS011;3564;53.326;10.356;2024-03-02T04:47:07;23.33;;;15.93;;
7045;SDS011;3564;53.326;10.356;2024-03-02T04:49:32;23.37;;;15.73;;
7045;SDS011;3564;53.326;10.356;2024-03-02T04:51:58;25.13;;;16.20;;
7045;SDS011;3564;53.326;10.356;2024-03-02T04:54:23;25.60;;;15.57;;
7045;SDS011;3564;53.326;10.356;2024-03-02T04:56:49;25.37;;;16.33;;
7045;SDS011;3564;53.326;10.356;2024-03-02T04:59:18;22.43;;;16.20;;
7045;SDS011;3564;53.326;10.356;2024-03-02T05:01:44;28.50;;;17.37;;
7045;SDS011;3564;53.326;10.356;2024-03-02T05:04:10;27.77;;;17.47;;
7045;SDS011;3564;53.326;10.356;2024-03-02T05:06:39;23.70;;;15.87;;
7045;SDS011;3564;53.326;10.356;2024-03-02T05:09:06;25.03;;;16.30;;
7045;SDS011;3564;53.326;10.356;2024-03-02T05:11:35;25.77;;;15.90;;
7045;SDS011;3564;53.326;10.356;2024-03-02T05:14:04;23.87;;;17.10;;
7045;SDS011;3564;53.326;10.356;2024-03-02T05:16:39;25.57;;;16.60;;
7045;SDS011;3564;53.326;10.356;2024-03-02T05:19:07;24.27;;;15.90;;
7045;SDS011;3564;53.326;10.356;2024-03-02T05:21:33;27.47;;;17.57;;
7045;SDS011;3564;53.326;10.356;2024-03-02T05:23:59;23.30;;;15.97;;
7045;SDS011;3564;53.326;10.356;2024-03-02T05:26:24;25.90;;;17.00;;
7045;SDS011;3564;53.326;10.356;2024-03-02T05:28:50;25.53;;;16.63;;
7045;SDS011;3564;53.326;10.356;2024-03-02T05:31:16;27.43;;;17.40;;
7045;SDS011;3564;53.326;10.356;2024-03-02T05:33:42;22.83;;;15.97;;
7045;SDS011;3564;53.326;10.356;2024-03-02T05:36:08;26.37;;;17.23;;
7045;SDS011;3564;53.326;10.356;2024-03-02T05:38:37;23.93;;;16.63;;
7045;SDS011;3564;53.326;10.356;2024-03-02T05:41:03;28.33;;;16.13;;
7045;SDS011;3564;53.326;10.356;2024-03-02T05:43:28;26.27;;;16.50;;
7045;SDS011;3564;53.326;10.356;2024-03-02T05:45:54;27.40;;;16.97;;
7045;SDS011;3564;53.326;10.356;2024-03-02T05:48:20;26.40;;;16.80;;
7045;SDS011;3564;53.326;10.356;2024-03-02T05:50:46;25.17;;;16.33;;
7045;SDS011;3564;53.326;10.356;2024-03-02T05:53:11;25.70;;;16.23;;
7045;SDS011;3564;53.326;10.356;2024-03-02T05:55:37;24.10;;;15.93;;
7045;SDS011;3564;53.326;10.356;2024-03-02T05:58:03;28.07;;;17.77;;
7045;SDS011;3564;53.326;10.356;2024-03-02T06:00:31;27.23;;;16.53;;
7045;SDS011;3564;53.326;10.356;2024-03-02T06:02:57;29.37;;;16.93;;
7045;SDS011;3564;53.326;10.356;2024-03-02T06:05:23;23.47;;;15.87;;
7045;SDS011;3564;53.326;10.356;2024-03-02T06:07:48;27.37;;;16.73;;
7045;SDS011;3564;53.326;10.356;2024-03-02T06:10:14;23.23;;;16.40;;
7045;SDS011;3564;53.326;10.356;2024-03-02T06:12:40;27.57;;;17.03;;
7045;SDS011;3564;53.326;10.356;2024-03-02T06:15:05;23.87;;;15.53;;
7045;SDS011;3564;53.326;10.356;2024-03-02T06:17:31;23.53;;;16.37;;
7045;SDS011;3564;53.326;10.356;2024-03-02T06:20:00;23.43;;;16.57;;
7045;SDS011;3564;53.326;10.356;2024-03-02T06:22:25;22.23;;;15.83;;
7045;SDS011;3564;53.326;10.356;2024-03-02T06:24:51;23.00;;;15.90;;
7045;SDS011;3564;53.326;10.356;2024-03-02T06:27:17;23.00;;;16.20;;
7045;SDS011;3564;53.326;10.356;2024-03-02T06:29:42;26.60;;;16.27;;
7045;SDS011;3564;53.326;10.356;2024-03-02T06:32:08;22.63;;;15.77;;
7045;SDS011;3564;53.326;10.356;2024-03-02T06:34:33;23.63;;;15.47;;
7045;SDS011;3564;53.326;10.356;2024-03-02T06:36:59;25.77;;;15.77;;
7045;SDS011;3564;53.326;10.356;2024-03-02T06:39:25;25.33;;;16.47;;
7045;SDS011;3564;53.326;10.356;2024-03-02T06:41:51;23.30;;;15.83;;
7045;SDS011;3564;53.326;10.356;2024-03-02T06:44:17;26.37;;;16.40;;
7045;SDS011;3564;53.326;10.356;2024-03-02T06:46:42;25.57;;;15.00;;
7045;SDS011;3564;53.326;10.356;2024-03-02T06:49:08;21.83;;;15.47;;
7045;SDS011;3564;53.326;10.356;2024-03-02T06:51:35;23.63;;;15.23;;
7045;SDS011;3564;53.326;10.356;2024-03-02T06:54:01;21.43;;;14.97;;
7045;SDS011;3564;53.326;10.356;2024-03-02T06:56:27;25.70;;;17.27;;
7045;SDS011;3564;53.326;10.356;2024-03-02T06:58:53;23.20;;;15.67;;
7045;SDS011;3564;53.326;10.356;2024-03-02T07:01:18;26.50;;;16.03;;
7045;SDS011;3564;53.326;10.356;2024-03-02T07:03:45;24.10;;;16.83;;
7045;SDS011;3564;53.326;10.356;2024-03-02T07:06:11;23.13;;;16.30;;
7045;SDS011;3564;53.326;10.356;2024-03-02T07:08:37;26.40;;;16.70;;
7045;SDS011;3564;53.326;10.356;2024-03-02T07:11:02;23.97;;;17.07;;
7045;SDS011;3564;53.326;10.356;2024-03-02T07:13:28;24.90;;;16.83;;
7045;SDS011;3564;53.326;10.356;2024-03-02T07:15:53;24.00;;;15.87;;
7045;SDS011;3564;53.326;10.356;2024-03-02T07:18:28;26.20;;;17.03;;
7045;SDS011;3564;53.326;10.356;2024-03-02T07:20:55;27.60;;;17.23;;
7045;SDS011;3564;53.326;10.356;2024-03-02T07:23:26;29.70;;;16.40;;
7045;SDS011;3564;53.326;10.356;2024-03-02T07:25:55;25.57;;;16.73;;
7045;SDS011;3564;53.326;10.356;2024-03-02T07:28:25;28.90;;;17.70;;
7045;SDS011;3564;53.326;10.356;2024-03-02T07:30:58;28.77;;;17.67;;
7045;SDS011;3564;53.326;10.356;2024-03-02T07:33:24;25.07;;;16.63;;
7045;SDS011;3564;53.326;10.356;2024-03-02T07:35:51;25.43;;;16.63;;
7045;SDS011;3564;53.326;10.356;2024-03-02T07:38:17;25.87;;;17.07;;
7045;SDS011;3564;53.326;10.356;2024-03-02T07:40:42;27.87;;;18.23;;
7045;SDS011;3564;53.326;10.356;2024-03-02T07:43:08;25.03;;;17.50;;
7045;SDS011;3564;53.326;10.356;2024-03-02T07:45:34;27.57;;;17.13;;
7045;SDS011;3564;53.326;10.356;2024-03-02T07:48:03;29.03;;;17.03;;
7045;SDS011;3564;53.326;10.356;2024-03-02T07:50:29;28.27;;;18.00;;
7045;SDS011;3564;53.326;10.356;2024-03-02T07:53:14;31.23;;;17.10;;
7045;SDS011;3564;53.326;10.356;2024-03-02T07:55:40;25.13;;;17.50;;
7045;SDS011;3564;53.326;10.356;2024-03-02T07:58:07;26.37;;;16.47;;
7045;SDS011;3564;53.326;10.356;2024-03-02T08:00:33;25.40;;;17.23;;
7045;SDS011;3564;53.326;10.356;2024-03-02T08:03:00;25.87;;;17.23;;
7045;SDS011;3564;53.326;10.356;2024-03-02T08:05:26;27.97;;;16.27;;
7045;SDS011;3564;53.326;10.356;2024-03-02T08:07:52;27.23;;;17.10;;
7045;SDS011;3564;53.326;10.356;2024-03-02T08:10:18;27.17;;;16.60;;
7045;SDS011;3564;53.326;10.356;2024-03-02T08:12:44;23.43;;;15.30;;
7045;SDS011;3564;53.326;10.356;2024-03-02T08:15:10;23.50;;;16.33;;
7045;SDS011;3564;53.326;10.356;2024-03-02T08:17:38;26.80;;;17.23;;
7045;SDS011;3564;53.326;10.356;2024-03-02T08:20:09;27.60;;;16.20;;
7045;SDS011;3564;53.326;10.356;2024-03-02T08:22:36;23.00;;;15.70;;
7045;SDS011;3564;53.326;10.356;2024-03-02T08:25:02;24.87;;;15.97;;
7045;SDS011;3564;53.326;10.356;2024-03-02T08:27:28;21.53;;;15.50;;
7045;SDS011;3564;53.326;10.356;2024-03-02T08:29:53;23.47;;;15.53;;
7045;SDS011;3564;53.326;10.356;2024-03-02T08:32:19;23.83;;;16.43;;
7045;SDS011;3564;53.326;10.356;2024-03-02T08:34:47;23.73;;;15.90;;
7045;SDS011;3564;53.326;10.356;2024-03-02T08:37:12;24.50;;;15.13;;
7045;SDS011;3564;53.326;10.356;2024-03-02T08:39:38;23.67;;;15.37;;
7045;SDS011;3564;53.326;10.356;2024-03-02T08:42:04;21.17;;;15.17;;
7045;SDS011;3564;53.326;10.356;2024-03-02T08:44:29;26.50;;;16.93;;
7045;SDS011;3564;53.326;10.356;2024-03-02T08:46:55;23.30;;;15.70;;
7045;SDS011;3564;53.326;10.356;2024-03-02T08:49:21;21.00;;;14.30;;
7045;SDS011;3564;53.326;10.356;2024-03-02T08:51:47;23.60;;;15.00;;
7045;SDS011;3564;53.326;10.356;2024-03-02T08:54:19;22.53;;;16.00;;
7045;SDS011;3564;53.326;10.356;2024-03-02T08:56:46;24.73;;;15.07;;
7045;SDS011;3564;53.326;10.356;2024-03-02T08:59:13;22.03;;;14.93;;
7045;SDS011;3564;53.326;10.356;2024-03-02T09:01:38;21.63;;;14.80;;
7045;SDS011;3564;53.326;10.356;2024-03-02T09:04:06;22.63;;;14.03;;
7045;SDS011;3564;53.326;10.356;2024-03-02T09:06:36;23.20;;;14.37;;
7045;SDS011;3564;53.326;10.356;2024-03-02T09:09:02;19.67;;;13.67;;
7045;SDS011;3564;53.326;10.356;2024-03-02T09:11:28;20.97;;;13.70;;
7045;SDS011;3564;53.326;10.356;2024-03-02T09:13:53;19.67;;;14.03;;
7045;SDS011;3564;53.326;10.356;2024-03-02T09:16:21;19.30;;;12.97;;
7045;SDS011;3564;53.326;10.356;2024-03-02T09:18:46;17.70;;;13.30;;
7045;SDS011;3564;53.326;10.356;2024-03-02T09:21:12;18.57;;;13.57;;
7045;SDS011;3564;53.326;10.356;2024-03-02T09:23:37;20.67;;;13.33;;
7045;SDS011;3564;53.326;10.356;2024-03-02T09:26:04;18.73;;;12.00;;
7045;SDS011;3564;53.326;10.356;2024-03-02T09:28:30;19.57;;;13.73;;
7045;SDS011;3564;53.326;10.356;2024-03-02T09:30:56;19.57;;;12.87;;
7045;SDS011;3564;53.326;10.356;2024-03-02T09:33:26;16.10;;;12.27;;
7045;SDS011;3564;53.326;10.356;2024-03-02T09:35:52;19.17;;;12.23;;
7045;SDS011;3564;53.326;10.356;2024-03-02T09:38:18;18.27;;;12.47;;
7045;SDS011;3564;53.326;10.356;2024-03-02T09:40:44;18.40;;;12.40;;
7045;SDS011;3564;53.326;10.356;2024-03-02T09:43:10;17.73;;;11.93;;
7045;SDS011;3564;53.326;10.356;2024-03-02T09:45:35;16.37;;;12.47;;
7045;SDS011;3564;53.326;10.356;2024-03-02T09:48:01;18.20;;;12.43;;
7045;SDS011;3564;53.326;10.356;2024-03-02T09:50:27;18.03;;;12.50;;
7045;SDS011;3564;53.326;10.356;2024-03-02T09:52:53;16.20;;;11.30;;
7045;SDS011;3564;53.326;10.356;2024-03-02T09:55:19;16.63;;;11.50;;
7045;SDS011;3564;53.326;10.356;2024-03-02T09:57:46;16.90;;;10.90;;
7045;SDS011;3564;53.326;10.356;2024-03-02T10:00:13;16.40;;;11.10;;
7045;SDS011;3564;53.326;10.356;2024-03-02T10:02:42;14.83;;;10.10;;
7045;SDS011;3564;53.326;10.356;2024-03-02T10:05:08;14.97;;;10.93;;
7045;SDS011;3564;53.326;10.356;2024-03-02T10:07:34;14.70;;;10.73;;
7045;SDS011;3564;53.326;10.356;2024-03-02T10:10:11;16.70;;;10.93;;
7045;SDS011;3564;53.326;10.356;2024-03-02T10:12:38;13.23;;;10.10;;
7045;SDS011;3564;53.326;10.356;2024-03-02T10:15:07;13.13;;;10.13;;
7045;SDS011;3564;53.326;10.356;2024-03-02T10:17:34;14.43;;;9.90;;
7045;SDS011;3564;53.326;10.356;2024-03-02T10:20:07;16.43;;;9.93;;
7045;SDS011;3564;53.326;10.356;2024-03-02T10:22:49;13.33;;;10.50;;
7045;SDS011;3564;53.326;10.356;2024-03-02T10:25:36;17.20;;;10.10;;
7045;SDS011;3564;53.326;10.356;2024-03-02T10:28:01;12.10;;;9.73;;
7045;SDS011;3564;53.326;10.356;2024-03-02T10:30:27;15.40;;;9.60;;
7045;SDS011;3564;53.326;10.356;2024-03-02T10:32:53;13.90;;;10.40;;
7045;SDS011;3564;53.326;10.356;2024-03-02T10:35:20;13.40;;;10.37;;
7045;SDS011;3564;53.326;10.356;2024-03-02T10:37:47;14.37;;;9.23;;
7045;SDS011;3564;53.326;10.356;2024-03-02T10:40:14;15.70;;;10.93;;
7045;SDS011;3564;53.326;10.356;2024-03-02T10:42:40;14.47;;;9.80;;
7045;SDS011;3564;53.326;10.356;2024-03-02T10:45:07;14.00;;;10.27;;
7045;SDS011;3564;53.326;10.356;2024-03-02T10:47:38;14.20;;;10.60;;
7045;SDS011;3564;53.326;10.356;2024-03-02T10:50:04;13.23;;;9.93;;
7045;SDS011;3564;53.326;10.356;2024-03-02T10:52:36;14.93;;;10.03;;
7045;SDS011;3564;53.326;10.356;2024-03-02T10:55:08;11.30;;;9.23;;
7045;SDS011;3564;53.326;10.356;2024-03-02T10:57:53;14.33;;;10.17;;
7045;SDS011;3564;53.326;10.356;2024-03-02T11:00:21;13.90;;;9.40;;
7045;SDS011;3564;53.326;10.356;2024-03-02T11:02:58;15.10;;;10.27;;
7045;SDS011;3564;53.326;10.356;2024-03-02T11:05:35;12.70;;;8.77;;
7045;SDS011;3564;53.326;10.356;2024-03-02T11:08:07;11.87;;;8.27;;
7045;SDS011;3564;53.326;10.356;2024-03-02T11:10:37;14.10;;;8.73;;
7045;SDS011;3564;53.326;10.356;2024-03-02T11:13:12;11.03;;;8.67;;
7045;SDS011;3564;53.326;10.356;2024-03-02T11:15:43;12.37;;;8.50;;
7045;SDS011;3564;53.326;10.356;2024-03-02T11:18:12;11.33;;;8.57;;
7045;SDS011;3564;53.326;10.356;2024-03-02T11:20:39;10.57;;;8.17;;
7045;SDS011;3564;53.326;10.356;2024-03-02T11:23:05;11.67;;;9.00;;
7045;SDS011;3564;53.326;10.356;2024-03-02T11:25:32;11.93;;;8.30;;
7045;SDS011;3564;53.326;10.356;2024-03-02T11:28:04;12.07;;;9.17;;
7045;SDS011;3564;53.326;10.356;2024-03-02T11:33:03;14.00;;;8.77;;
7045;SDS011;3564;53.326;10.356;2024-03-02T11:35:33;12.90;;;8.57;;
7045;SDS011;3564;53.326;10.356;2024-03-02T11:38:00;12.83;;;10.00;;
7045;SDS011;3564;53.326;10.356;2024-03-02T11:40:28;12.17;;;8.83;;
7045;SDS011;3564;53.326;10.356;2024-03-02T11:42:55;12.57;;;8.83;;
7045;SDS011;3564;53.326;10.356;2024-03-02T11:45:26;10.43;;;8.07;;
7045;SDS011;3564;53.326;10.356;2024-03-02T11:47:57;12.40;;;8.13;;
7045;SDS011;3564;53.326;10.356;2024-03-02T11:53:14;13.77;;;9.27;;
7045;SDS011;3564;53.326;10.356;2024-03-02T11:55:40;10.33;;;8.10;;
7045;SDS011;3564;53.326;10.356;2024-03-02T11:58:11;12.60;;;8.23;;
7045;SDS011;3564;53.326;10.356;2024-03-02T12:00:37;14.20;;;8.87;;
7045;SDS011;3564;53.326;10.356;2024-03-02T12:03:07;13.23;;;8.47;;
7045;SDS011;3564;53.326;10.356;2024-03-02T12:05:34;13.20;;;8.90;;
7045;SDS011;3564;53.326;10.356;2024-03-02T12:08:04;12.20;;;9.07;;
7045;SDS011;3564;53.326;10.356;2024-03-02T12:10:31;11.10;;;8.57;;
7045;SDS011;3564;53.326;10.356;2024-03-02T12:13:01;11.77;;;8.33;;
7045;SDS011;3564;53.326;10.356;2024-03-02T12:15:29;13.00;;;9.27;;
7045;SDS011;3564;53.326;10.356;2024-03-02T12:17:56;12.67;;;9.07;;
7045;SDS011;3564;53.326;10.356;2024-03-02T12:20:23;13.60;;;9.33;;
7045;SDS011;3564;53.326;10.356;2024-03-02T12:22:52;12.63;;;9.43;;
7045;SDS011;3564;53.326;10.356;2024-03-02T12:25:20;11.77;;;9.27;;
7045;SDS011;3564;53.326;10.356;2024-03-02T12:27:50;13.50;;;9.37;;
7045;SDS011;3564;53.326;10.356;2024-03-02T12:30:32;11.03;;;9.17;;
7045;SDS011;3564;53.326;10.356;2024-03-02T12:33:00;13.33;;;10.10;;
7045;SDS011;3564;53.326;10.356;2024-03-02T12:35:26;12.97;;;9.53;;
7045;SDS011;3564;53.326;10.356;2024-03-02T12:37:52;10.70;;;8.27;;
7045;SDS011;3564;53.326;10.356;2024-03-02T12:40:19;12.60;;;9.60;;
7045;SDS011;3564;53.326;10.356;2024-03-02T12:42:45;13.30;;;9.77;;
7045;SDS011;3564;53.326;10.356;2024-03-02T12:45:13;12.70;;;8.87;;
7045;SDS011;3564;53.326;10.356;2024-03-02T12:47:39;14.43;;;9.90;;
7045;SDS011;3564;53.326;10.356;2024-03-02T12:50:06;14.23;;;9.93;;
7045;SDS011;3564;53.326;10.356;2024-03-02T12:52:33;11.80;;;8.63;;
7045;SDS011;3564;53.326;10.356;2024-03-02T12:55:00;12.90;;;9.23;;
7045;SDS011;3564;53.326;10.356;2024-03-02T12:57:31;17.03;;;13.77;;
7045;SDS011;3564;53.326;10.356;2024-03-02T12:59:58;34.73;;;26.43;;
7045;SDS011;3564;53.326;10.356;2024-03-02T13:02:35;15.63;;;12.60;;
7045;SDS011;3564;53.326;10.356;2024-03-02T13:05:01;11.57;;;8.53;;
7045;SDS011;3564;53.326;10.356;2024-03-02T13:07:27;10.93;;;8.00;;
7045;SDS011;3564;53.326;10.356;2024-03-02T13:09:55;10.23;;;8.10;;
7045;SDS011;3564;53.326;10.356;2024-03-02T13:12:21;10.90;;;8.10;;
7045;SDS011;3564;53.326;10.356;2024-03-02T13:14:51;10.03;;;6.60;;
7045;SDS011;3564;53.326;10.356;2024-03-02T13:17:18;9.83;;;7.10;;
7045;SDS011;3564;53.326;10.356;2024-03-02T13:20:05;9.53;;;6.60;;
7045;SDS011;3564;53.326;10.356;2024-03-02T13:22:35;10.10;;;6.60;;
7045;SDS011;3564;53.326;10.356;2024-03-02T13:25:03;10.43;;;7.47;;
7045;SDS011;3564;53.326;10.356;2024-03-02T13:27:29;8.30;;;6.73;;
7045;SDS011;3564;53.326;10.356;2024-03-02T13:29:58;12.43;;;7.83;;
7045;SDS011;3564;53.326;10.356;2024-03-02T13:32:24;10.80;;;7.53;;
7045;SDS011;3564;53.326;10.356;2024-03-02T13:34:51;10.70;;;7.80;;
7045;SDS011;3564;53.326;10.356;2024-03-02T13:37:17;10.60;;;7.97;;
7045;SDS011;3564;53.326;10.356;2024-03-02T13:39:45;10.37;;;7.77;;
7045;SDS011;3564;53.326;10.356;2024-03-02T13:42:11;11.90;;;8.10;;
7045;SDS011;3564;53.326;10.356;2024-03-02T13:44:39;10.23;;;8.00;;
7045;SDS011;3564;53.326;10.356;2024-03-02T13:47:06;10.77;;;8.47;;
7045;SDS011;3564;53.326;10.356;2024-03-02T13:49:32;11.97;;;8.03;;
7045;SDS011;3564;53.326;10.356;2024-03-02T13:52:08;11.63;;;7.50;;
7045;SDS011;3564;53.326;10.356;2024-03-02T13:54:42;11.33;;;7.70;;
7045;SDS011;3564;53.326;10.356;2024-03-02T13:57:10;12.03;;;7.93;;
7045;SDS011;3564;53.326;10.356;2024-03-02T13:59:36;11.23;;;7.50;;
7045;SDS011;3564;53.326;10.356;2024-03-02T14:02:02;13.47;;;8.90;;
7045;SDS011;3564;53.326;10.356;2024-03-02T14:04:31;12.30;;;8.80;;
7045;SDS011;3564;53.326;10.356;2024-03-02T14:06:58;11.67;;;8.33;;
7045;SDS011;3564;53.326;10.356;2024-03-02T14:09:24;10.03;;;8.33;;
7045;SDS011;3564;53.326;10.356;2024-03-02T14:11:50;11.90;;;8.60;;
7045;SDS011;3564;53.326;10.356;2024-03-02T14:14:19;12.50;;;8.90;;
7045;SDS011;3564;53.326;10.356;2024-03-02T14:16:45;11.20;;;7.83;;
7045;SDS011;3564;53.326;10.356;2024-03-02T14:19:11;10.77;;;8.23;;
7045;SDS011;3564;53.326;10.356;2024-03-02T14:21:40;11.43;;;7.87;;
7045;SDS011;3564;53.326;10.356;2024-03-02T14:24:05;13.47;;;8.10;;
7045;SDS011;3564;53.326;10.356;2024-03-02T14:26:35;11.63;;;7.47;;
7045;SDS011;3564;53.326;10.356;2024-03-02T14:29:04;11.77;;;8.20;;
7045;SDS011;3564;53.326;10.356;2024-03-02T14:31:30;9.30;;;7.20;;
7045;SDS011;3564;53.326;10.356;2024-03-02T14:33:56;12.47;;;8.23;;
7045;SDS011;3564;53.326;10.356;2024-03-02T14:36:22;9.07;;;7.00;;
7045;SDS011;3564;53.326;10.356;2024-03-02T14:38:48;10.07;;;7.10;;
7045;SDS011;3564;53.326;10.356;2024-03-02T14:41:14;9.87;;;7.20;;
7045;SDS011;3564;53.326;10.356;2024-03-02T14:43:39;11.53;;;7.47;;
7045;SDS011;3564;53.326;10.356;2024-03-02T14:46:05;10.97;;;7.43;;